Christos Xxxvii — SVA6992 — position and weather

sailwx.info

Track history (hours):
 
Tides and Currents Weather Stations Pressure Air Temp Water Temp Dewpoint Dewpoint Depression Visibility Wind Speed Wind Dir Waves Ship Positions

Christos Xxxvii

Last reported at 2018-Apr-22 09:50 UTC. Time now 2018-Apr-22 18:14 UTC.
Position N 38°01' E 023°36'.

Length 26 m.

Type: Tug. MMSI: 239951200.

Date/timePositionNaut miles runAvg speedWind from/ knotsBaromVisibWave heightAir tempDewpointWater temp
2018-Apr-22 09:50N 38°01' E 023°36'0 0.1
2018-Apr-22 09:26N 38°01' E 023°35'0 0.3
2018-Apr-22 08:20N 38°02' E 023°36'0 0.3
2018-Apr-22 08:00N 38°02' E 023°36'0 0.2
2018-Apr-22 07:17N 38°01' E 023°36'0 0.7
2018-Apr-22 06:57N 38°02' E 023°36'0 0.5
2018-Apr-22 06:26N 38°01' E 023°35'1 1.1
2018-Apr-22 05:55N 38°02' E 023°35'3 7.0
2018-Apr-22 05:30N 37°60' E 023°33'2 4.3
2018-Apr-22 05:00N 37°58' E 023°34'0 0.8
2018-Apr-22 04:30N 37°57' E 023°33'0 0.8
2018-Apr-22 03:58N 37°58' E 023°33'0 0.0
2018-Apr-21 07:39N 37°58' E 023°33'0 2.5
2018-Apr-21 07:30N 37°58' E 023°33'2 4.7
2018-Apr-21 07:00N 37°60' E 023°33'2 0.1
2018-Apr-20 09:19N 38°02' E 023°36'0 0.4
2018-Apr-20 09:00N 38°02' E 023°36'0 0.1
2018-Apr-20 06:34N 38°01' E 023°36'0 5.2
2018-Apr-20 06:30N 38°02' E 023°36'0 0.4
2018-Apr-20 05:57N 38°02' E 023°36'0 0.0
2018-Apr-20 05:30N 38°02' E 023°36'0 0.0
2018-Apr-19 15:26N 38°01' E 023°36'0 0.0
2018-Apr-19 14:56N 38°01' E 023°36'0 0.0
2018-Apr-19 12:43N 38°01' E 023°35'0 1.5
2018-Apr-19 12:29N 38°02' E 023°36'0 0.2
2018-Apr-19 11:55N 38°02' E 023°36'0 0.1
2018-Apr-19 06:44N 38°01' E 023°35'0 0.1
2018-Apr-19 05:43N 38°02' E 023°36'0 0.8
2018-Apr-19 05:27N 38°01' E 023°35'0 0.6
2018-Apr-19 04:59N 38°01' E 023°35'0 0.2
2018-Apr-19 03:56N 38°01' E 023°35'3 8.0
2018-Apr-19 03:30N 37°59' E 023°33'1 1.5
2018-Apr-19 02:59N 37°58' E 023°33'0 0.0
2018-Apr-17 17:09N 37°58' E 023°33'1 3.3
2018-Apr-17 17:00N 37°58' E 023°33'4 2.9
2018-Apr-17 15:37N 38°01' E 023°36'0 0.0
2018-Apr-16 11:55N 38°01' E 023°35'0 0.6
2018-Apr-16 11:28N 38°02' E 023°36'2 3.4
2018-Apr-16 11:00N 38°01' E 023°34'3 6.0
2018-Apr-16 10:30N 37°58' E 023°33'0 0.0
2018-Apr-16 10:00N 37°58' E 023°33'0 0.0
2018-Apr-16 09:30N 37°58' E 023°33'0 0.0
2018-Apr-16 08:57N 37°58' E 023°33'0 0.0
2018-Apr-16 08:30N 37°58' E 023°33'0 0.0
2018-Apr-16 08:00N 37°58' E 023°33'0 0.0
2018-Apr-16 07:30N 37°58' E 023°33'0 0.0
2018-Apr-16 06:51N 37°58' E 023°33'0 0.0
2018-Apr-16 06:30N 37°58' E 023°33'0 0.6
2018-Apr-16 06:00N 37°58' E 023°33'0 0.0
2018-Apr-16 05:25N 37°58' E 023°33'0 0.0
2018-Apr-14 10:28N 37°58' E 023°33'2 3.3
2018-Apr-14 09:50N 37°60' E 023°33'2 3.6
2018-Apr-14 09:20N 38°00' E 023°35'0 0.0
2018-Apr-14 08:41N 38°00' E 023°35'0 0.0
2018-Apr-14 08:23N 38°00' E 023°35'1 3.7
2018-Apr-14 08:00N 38°02' E 023°35'0 0.9
2018-Apr-14 07:30N 38°02' E 023°35'1 1.0
2018-Apr-14 07:00N 38°01' E 023°35'0 0.5
2018-Apr-14 06:29N 38°02' E 023°36'0 0.4
2018-Apr-14 05:53N 38°01' E 023°35'0 0.1
2018-Apr-14 05:08N 38°01' E 023°35'0 0.0
2018-Apr-13 06:40N 38°01' E 023°36'0 0.0
2018-Apr-12 14:37N 38°01' E 023°35'1 8.0
2018-Apr-12 14:30N 38°01' E 023°35'3 5.8
2018-Apr-12 13:56N 37°58' E 023°33'0 0.0
2018-Apr-12 13:23N 37°58' E 023°33'0 0.0
2018-Apr-12 12:50N 37°58' E 023°33'1 1.4
2018-Apr-12 12:28N 37°57' E 023°33'0 0.0
2018-Apr-12 11:58N 37°57' E 023°33'0 0.0
2018-Apr-12 11:28N 37°57' E 023°33'0 0.0
2018-Apr-12 10:58N 37°57' E 023°33'0 0.0
2018-Apr-12 10:28N 37°57' E 023°33'0 0.0
2018-Apr-12 09:58N 37°57' E 023°33'  
Track history (hours):
 
Tides and Currents Weather Stations Pressure Air Temp Water Temp Dewpoint Dewpoint Depression Visibility Wind Speed Wind Dir Waves Ship Positions

Christos Xxxvii

Last reported at 2018-Apr-22 09:50 UTC. Time now 2018-Apr-22 18:14 UTC.
Position N 38°01' E 023°36'.

Length 26 m.

Type: Tug. MMSI: 239951200.

Date/timePositionNaut miles runAvg speedWind from/ knotsBaromVisibWave heightAir tempDewpointWater temp
2018-Apr-22 09:50N 38°01' E 023°36'0 0.1
2018-Apr-22 09:26N 38°01' E 023°35'0 0.3
2018-Apr-22 08:20N 38°02' E 023°36'0 0.3
2018-Apr-22 08:00N 38°02' E 023°36'0 0.2
2018-Apr-22 07:17N 38°01' E 023°36'0 0.7
2018-Apr-22 06:57N 38°02' E 023°36'0 0.5
2018-Apr-22 06:26N 38°01' E 023°35'1 1.1
2018-Apr-22 05:55N 38°02' E 023°35'3 7.0
2018-Apr-22 05:30N 37°60' E 023°33'2 4.3
2018-Apr-22 05:00N 37°58' E 023°34'0 0.8
2018-Apr-22 04:30N 37°57' E 023°33'0 0.8
2018-Apr-22 03:58N 37°58' E 023°33'0 0.0
2018-Apr-21 07:39N 37°58' E 023°33'0 2.5
2018-Apr-21 07:30N 37°58' E 023°33'2 4.7
2018-Apr-21 07:00N 37°60' E 023°33'2 0.1
2018-Apr-20 09:19N 38°02' E 023°36'0 0.4
2018-Apr-20 09:00N 38°02' E 023°36'0 0.1
2018-Apr-20 06:34N 38°01' E 023°36'0 5.2
2018-Apr-20 06:30N 38°02' E 023°36'0 0.4
2018-Apr-20 05:57N 38°02' E 023°36'0 0.0
2018-Apr-20 05:30N 38°02' E 023°36'0 0.0
2018-Apr-19 15:26N 38°01' E 023°36'0 0.0
2018-Apr-19 14:56N 38°01' E 023°36'0 0.0
2018-Apr-19 12:43N 38°01' E 023°35'0 1.5
2018-Apr-19 12:29N 38°02' E 023°36'0 0.2
2018-Apr-19 11:55N 38°02' E 023°36'0 0.1
2018-Apr-19 06:44N 38°01' E 023°35'0 0.1
2018-Apr-19 05:43N 38°02' E 023°36'0 0.8
2018-Apr-19 05:27N 38°01' E 023°35'0 0.6
2018-Apr-19 04:59N 38°01' E 023°35'0 0.2
2018-Apr-19 03:56N 38°01' E 023°35'3 8.0
2018-Apr-19 03:30N 37°59' E 023°33'1 1.5
2018-Apr-19 02:59N 37°58' E 023°33'0 0.0
2018-Apr-17 17:09N 37°58' E 023°33'1 3.3
2018-Apr-17 17:00N 37°58' E 023°33'4 2.9
2018-Apr-17 15:37N 38°01' E 023°36'0 0.0
2018-Apr-16 11:55N 38°01' E 023°35'0 0.6
2018-Apr-16 11:28N 38°02' E 023°36'2 3.4
2018-Apr-16 11:00N 38°01' E 023°34'3 6.0
2018-Apr-16 10:30N 37°58' E 023°33'0 0.0
2018-Apr-16 10:00N 37°58' E 023°33'0 0.0
2018-Apr-16 09:30N 37°58' E 023°33'0 0.0
2018-Apr-16 08:57N 37°58' E 023°33'0 0.0
2018-Apr-16 08:30N 37°58' E 023°33'0 0.0
2018-Apr-16 08:00N 37°58' E 023°33'0 0.0
2018-Apr-16 07:30N 37°58' E 023°33'0 0.0
2018-Apr-16 06:51N 37°58' E 023°33'0 0.0
2018-Apr-16 06:30N 37°58' E 023°33'0 0.6
2018-Apr-16 06:00N 37°58' E 023°33'0 0.0
2018-Apr-16 05:25N 37°58' E 023°33'0 0.0
2018-Apr-14 10:28N 37°58' E 023°33'2 3.3
2018-Apr-14 09:50N 37°60' E 023°33'2 3.6
2018-Apr-14 09:20N 38°00' E 023°35'0 0.0
2018-Apr-14 08:41N 38°00' E 023°35'0 0.0
2018-Apr-14 08:23N 38°00' E 023°35'1 3.7
2018-Apr-14 08:00N 38°02' E 023°35'0 0.9
2018-Apr-14 07:30N 38°02' E 023°35'1 1.0
2018-Apr-14 07:00N 38°01' E 023°35'0 0.5
2018-Apr-14 06:29N 38°02' E 023°36'0 0.4
2018-Apr-14 05:53N 38°01' E 023°35'0 0.1
2018-Apr-14 05:08N 38°01' E 023°35'0 0.0
2018-Apr-13 06:40N 38°01' E 023°36'0 0.0
2018-Apr-12 14:37N 38°01' E 023°35'1 8.0
2018-Apr-12 14:30N 38°01' E 023°35'3 5.8
2018-Apr-12 13:56N 37°58' E 023°33'0 0.0
2018-Apr-12 13:23N 37°58' E 023°33'0 0.0
2018-Apr-12 12:50N 37°58' E 023°33'1 1.4
2018-Apr-12 12:28N 37°57' E 023°33'0 0.0
2018-Apr-12 11:58N 37°57' E 023°33'0 0.0
2018-Apr-12 11:28N 37°57' E 023°33'0 0.0
2018-Apr-12 10:58N 37°57' E 023°33'0 0.0
2018-Apr-12 10:28N 37°57' E 023°33'0 0.0
2018-Apr-12 09:58N 37°57' E 023°33'  

Dump ship's entire track history